Map

Track Data

SID SEASON NUMBER BASIN SUBBASIN NAME ISO_TIME NATURE LAT LON WMO_WIND WMO_PRES WMO_AGENCY TRACK_TYPE DIST2LAND LANDFALL IFLAG USA_AGENCY USA_ATCF_ID USA_LAT USA_LON USA_RECORD USA_STATUS USA_WIND USA_PRES USA_SSHS USA_R34_NE USA_R34_SE USA_R34_SW USA_R34_NW USA_R50_NE USA_R50_SE USA_R50_SW USA_R50_NW USA_R64_NE USA_R64_SE USA_R64_SW USA_R64_NW USA_POCI USA_ROCI USA_RMW USA_EYE TOKYO_LAT TOKYO_LON TOKYO_GRADE TOKYO_WIND TOKYO_PRES TOKYO_R50_DIR TOKYO_R50_LONG TOKYO_R50_SHORT TOKYO_R30_DIR TOKYO_R30_LONG TOKYO_R30_SHORT TOKYO_LAND CMA_LAT CMA_LON CMA_CAT CMA_WIND CMA_PRES HKO_LAT HKO_LON HKO_CAT HKO_WIND HKO_PRES NEWDELHI_LAT NEWDELHI_LON NEWDELHI_GRADE NEWDELHI_WIND NEWDELHI_PRES NEWDELHI_CI NEWDELHI_DP NEWDELHI_POCI REUNION_LAT REUNION_LON REUNION_TYPE REUNION_WIND REUNION_PRES REUNION_TNUM REUNION_CI REUNION_RMW REUNION_R34_NE REUNION_R34_SE REUNION_R34_SW REUNION_R34_NW REUNION_R50_NE REUNION_R50_SE REUNION_R50_SW REUNION_R50_NW REUNION_R64_NE REUNION_R64_SE REUNION_R64_SW REUNION_R64_NW BOM_LAT BOM_LON BOM_TYPE BOM_WIND BOM_PRES BOM_TNUM BOM_CI BOM_RMW BOM_R34_NE BOM_R34_SE BOM_R34_SW BOM_R34_NW BOM_R50_NE BOM_R50_SE BOM_R50_SW BOM_R50_NW BOM_R64_NE BOM_R64_SE BOM_R64_SW BOM_R64_NW BOM_ROCI BOM_POCI BOM_EYE BOM_POS_METHOD BOM_PRES_METHOD NADI_LAT NADI_LON NADI_CAT NADI_WIND NADI_PRES WELLINGTON_LAT WELLINGTON_LON WELLINGTON_WIND WELLINGTON_PRES DS824_LAT DS824_LON DS824_STAGE DS824_WIND DS824_PRES TD9636_LAT TD9636_LON TD9636_STAGE TD9636_WIND TD9636_PRES TD9635_LAT TD9635_LON TD9635_WIND TD9635_PRES TD9635_ROCI NEUMANN_LAT NEUMANN_LON NEUMANN_CLASS NEUMANN_WIND NEUMANN_PRES MLC_LAT MLC_LON MLC_CLASS MLC_WIND MLC_PRES USA_GUST BOM_GUST BOM_GUST_PER REUNION_GUST REUNION_GUST_PER USA_SEAHGT USA_SEARAD_NE USA_SEARAD_SE USA_SEARAD_SW USA_SEARAD_NW STORM_SPEED STORM_DIR
1997283N07177 1997 95 WP MM IVAN 1997-10-09 12:00:00 NR 7.00000 177.000 main 2491 2420 O_____________ jtwc_wp WP271997 7.00000 177.000 15 -1 20 270
1997283N07177 1997 95 WP MM IVAN 1997-10-09 15:00:00 NR 6.99792 176.000 main 2413 2344 P_____________ WP271997 6.99792 176.000 15 -1 20 270
1997283N07177 1997 95 WP MM IVAN 1997-10-09 18:00:00 NR 7.00000 175.000 main 2336 2270 O_____________ jtwc_wp WP271997 7.00000 175.000 15 -1 20 270
1997283N07177 1997 95 WP MM IVAN 1997-10-09 21:00:00 NR 7.00729 174.000 main 2263 2200 P_____________ WP271997 7.00729 174.000 15 -1 20 270
1997283N07177 1997 95 WP MM IVAN 1997-10-10 00:00:00 NR 7.00000 173.000 main 2193 2126 O_____________ jtwc_wp WP271997 7.00000 173.000 15 -1 20 269
1997283N07177 1997 95 WP MM IVAN 1997-10-10 03:00:00 NR 6.96488 171.985 main 2126 2060 P_____________ WP271997 6.96488 171.985 15 -1 20 267
1997283N07177 1997 95 WP MM IVAN 1997-10-10 06:00:00 NR 6.90000 171.000 main 2054 1991 O_____________ jtwc_wp WP271997 6.90000 171.000 15 -1 19 265
1997283N07177 1997 95 WP MM IVAN 1997-10-10 09:00:00 NR 6.79983 170.070 main 1991 1931 P_____________ WP271997 6.79983 170.070 15 -1 18 264
1997283N07177 1997 95 WP MM IVAN 1997-10-10 12:00:00 NR 6.70000 169.200 main 1931 1880 O_____________ jtwc_wp WP271997 6.70000 169.200 15 -1 17 264
1997283N07177 1997 95 WP MM IVAN 1997-10-10 15:00:00 NR 6.63486 168.370 main 1880 1842 P_____________ WP271997 6.63486 168.370 15 -1 16 266
1997283N07177 1997 95 WP MM IVAN 1997-10-10 18:00:00 NR 6.60000 167.600 main 1842 1812 O_____________ jtwc_wp WP271997 6.60000 167.600 15 -1 15 268
1997283N07177 1997 95 WP MM IVAN 1997-10-10 21:00:00 NR 6.58487 166.878 main 1812 1784 P_____________ WP271997 6.58487 166.878 17 -1 14 270
1997283N07177 1997 95 WP MM IVAN 1997-10-11 00:00:00 NR 6.60000 166.200 main 1784 1763 O_____________ jtwc_wp WP271997 6.60000 166.200 20 -1 13 272
1997283N07177 1997 95 WP MM IVAN 1997-10-11 03:00:00 NR 6.62726 165.572 main 1763 1743 P_____________ WP271997 6.62726 165.572 20 -1 13 274
1997283N07177 1997 95 WP MM IVAN 1997-10-11 06:00:00 NR 6.70000 164.900 main 1743 1711 O_____________ jtwc_wp WP271997 6.70000 164.900 20 -1 15 277
1997283N07177 1997 95 WP MM IVAN 1997-10-11 09:00:00 NR 6.81254 164.072 main 1711 1674 P_____________ WP271997 6.81254 164.072 20 -1 17 280
1997283N07177 1997 95 WP MM IVAN 1997-10-11 12:00:00 NR 7.00000 163.200 main 1674 1645 O_____________ jtwc_wp WP271997 7.00000 163.200 20 -1 17 285
1997283N07177 1997 95 WP MM IVAN 1997-10-11 15:00:00 NR 7.26982 162.392 main 1646 1615 P_____________ WP271997 7.26982 162.392 20 -1 17 291
1997283N07177 1997 95 WP MM IVAN 1997-10-11 18:00:00 NR 7.60000 161.600 main 1617 1595 O_____________ jtwc_wp WP271997 7.60000 161.600 20 -1 17 293
1997283N07177 1997 95 WP MM IVAN 1997-10-11 21:00:00 NR 7.94231 160.807 main 1590 1571 P_____________ WP271997 7.94231 160.807 20 -1 17 294
1997283N07177 1997 95 WP MM IVAN 1997-10-12 00:00:00 NR 8.30000 160.000 main 1574 1554 O_____________ jtwc_wp WP271997 8.30000 160.000 20 -1 18 294
1997283N07177 1997 95 WP MM IVAN 1997-10-12 03:00:00 NR 8.66495 159.143 main 1558 1537 P_____________ WP271997 8.66495 159.143 20 -1 18 293
1997283N07177 1997 95 WP MM IVAN 1997-10-12 06:00:00 NR 9.00000 158.300 main 1541 1525 O_____________ jtwc_wp WP271997 9.00000 158.300 20 -1 17 291
1997283N07177 1997 95 WP MM IVAN 1997-10-12 09:00:00 NR 9.27224 157.535 main 1530 1515 P_____________ WP271997 9.27224 157.535 20 -1 16 289
1997283N07177 1997 95 WP MM IVAN 1997-10-12 12:00:00 NR 9.50000 156.800 main 1515 1502 O_____________ jtwc_wp WP271997 9.50000 156.800 20 -1 16 287
1997283N07177 1997 95 WP MM IVAN 1997-10-12 15:00:00 NR 9.72247 156.028 main 1500 1490 P_____________ WP271997 9.72247 156.028 20 -1 15 285
1997283N07177 1997 95 WP MM IVAN 1997-10-12 18:00:00 NR 9.90000 155.300 main 1493 1483 O_____________ jtwc_wp WP271997 9.90000 155.300 20 -1 14 282
1997283N07177 1997 95 WP MM IVAN 1997-10-12 21:00:00 NR 10.0072 154.685 main 1484 1480 P_____________ WP271997 10.0072 154.685 20 -1 10 291
1997283N07177 1997 95 WP MM IVAN 1997-10-13 00:00:00 TS 10.2400 154.380 1008 tokyo main 1496 1496 OO____________ jtwc_wp WP271997 10.1000 154.100 20 -1 10.8000 155.500 2 1008 0 0 0 9 297
1997283N07177 1997 95 WP MM IVAN 1997-10-13 03:00:00 TS 10.4384 153.832 main 1502 1502 PP____________ WP271997 10.2349 153.457 22 -1 10.8453 154.580 2 1007 0 0 13 287
1997283N07177 1997 95 WP MM IVAN 1997-10-13 06:00:00 TS 10.6143 153.143 1006 tokyo main 1510 1508 OO____________ jtwc_wp WP271997 10.4000 152.800 25 -1 10.9000 153.600 2 1006 0 0 0 15 283
1997283N07177 1997 95 WP MM IVAN 1997-10-13 09:00:00 TS 10.7850 152.346 main 1520 1517 PP____________ WP271997 10.5923 152.157 30 -1 10.9776 152.535 2 1005 0 0 17 282
1997283N07177 1997 95 WP MM IVAN 1997-10-13 12:00:00 TS 10.9500 151.500 1004 tokyo main 1536 1523 OO____________ jtwc_wp WP271997 10.8000 151.500 35 0 11.1000 151.500 2 1004 0 0 0 17 282
1997283N07177 1997 95 WP MM IVAN 1997-10-13 15:00:00 TS 11.1423 150.702 main 1523 1523 PP____________ WP271997 10.9998 150.815 37 0 11.2847 150.590 2 1003 0 0 16 285
1997283N07177 1997 95 WP MM IVAN 1997-10-13 18:00:00 TS 11.3500 149.970 1002 tokyo main 1539 1528 OOOO__________ jtwc_wp WP271997 11.2000 150.100 40 0 11.5000 149.800 2 1002 0 0 0 11.5000 150.000 1 23 1002 11.2000 150.100 TD 30 1000 15 287
1997283N07177 1997 95 WP MM IVAN 1997-10-13 21:00:00 TS 11.5592 149.270 main 1549 1543 PPPP__________ WP271997 11.3998 149.365 40 0 11.7200 149.153 2 1001 0 0 11.5877 149.272 1 26 1001 11.5279 149.310 TD 30 1000 15 286
1997283N07177 1997 95 WP MM IVAN 1997-10-14 00:00:00 TS 11.7500 148.529 1000 tokyo main 1562 1559 OOOO__________ jtwc_wp WP271997 11.6000 148.600 40 0 11.9000 148.500 2 1000 0 0 0 11.7000 148.500 1 29 1000 11.8000 148.500 TD 30 1000 16 283
1997283N07177 1997 95 WP MM IVAN 1997-10-14 03:00:00 TS 11.9074 147.706 35 1000 tokyo main 1568 1568 POPP__________ WP271997 11.7998 147.807 42 0 12.0000 147.700 3 35 1000 0 9 90 90 0 11.8499 147.658 1 31 999 11.9798 147.657 TD 30 1000 17 280
1997283N07177 1997 95 WP MM IVAN 1997-10-14 06:00:00 TS 12.0250 146.850 35 998 tokyo main 1579 1579 OOOO__________ jtwc_wp WP271997 12.0000 147.000 45 0 12.0000 146.800 3 35 998 0 9 140 140 0 12.0000 146.800 2 34 998 12.1000 146.800 TD 30 1000 17 278
1997283N07177 1997 95 WP MM IVAN 1997-10-14 09:00:00 TS 12.1449 146.004 main 1592 1592 PPPP__________ WP271997 12.2073 146.200 47 0 12.0727 145.880 3 35 997 0 9 150 150 12.0996 146.000 2 34 997 12.1999 145.935 TD 30 1000 17 279
1997283N07177 1997 95 WP MM IVAN 1997-10-14 12:00:00 TS 12.2750 145.175 35 996 tokyo main 1620 1620 OOOO__________ jtwc_wp WP271997 12.4000 145.400 50 0 12.2000 145.000 3 35 996 0 9 160 160 0 12.2000 145.200 2 34 996 12.3000 145.100 TD 30 1000 16 280
1997283N07177 1997 95 WP MM IVAN 1997-10-14 15:00:00 TS 12.4136 144.361 main 1642 1642 PPPP__________ WP271997 12.5575 144.570 52 0 12.3272 144.220 3 37 995 0 9 170 170 12.3351 144.327 2 36 995 12.4347 144.327 TD 32 998 16 281
1997283N07177 1997 95 WP MM IVAN 1997-10-14 18:00:00 TS 12.5750 143.600 40 994 tokyo main 1680 1680 OOOO__________ jtwc_wp WP271997 12.7000 143.800 55 0 12.5000 143.500 3 40 994 0 9 180 180 0 12.5000 143.500 2 38 995 12.6000 143.600 TS 35 996 15 284
1997283N07177 1997 95 WP MM IVAN 1997-10-14 21:00:00 TS 12.7616 142.909 main 1694 1686 PPPP__________ WP271997 12.8496 143.170 57 0 12.7349 142.770 3 40 993 0 9 190 190 12.6771 142.820 2 38 993 12.7849 142.877 TS 35 996 14 287
1997283N07177 1997 95 WP MM IVAN 1997-10-15 00:00:00 TS 12.9750 142.275 40 992 tokyo main 1697 1687 OOOO__________ jtwc_wp WP271997 13.0000 142.600 60 0 13.0000 142.100 3 40 992 0 9 200 200 0 12.9000 142.200 2 38 992 13.0000 142.200 TS 35 996 13 290
1997283N07177 1997 95 WP MM IVAN 1997-10-15 03:00:00 TS 13.2086 141.660 main 1694 1685 PPPP__________ WP271997 13.1423 142.015 62 0 13.2347 141.535 3 42 991 0 9 210 210 13.2000 141.520 2 41 991 13.2573 141.570 TS 37 994 13 292
1997283N07177 1997 95 WP MM IVAN 1997-10-15 06:00:00 TS 13.4500 141.075 45 990 tokyo main 1686 1625 OOOO__________ jtwc_wp WP271997 13.3000 141.400 65 1 13.5000 141.000 3 45 990 0 9 220 220 0 13.5000 140.900 2 44 990 13.5000 141.000 TS 40 992 12 293
1997283N07177 1997 95 WP MM IVAN 1997-10-15 09:00:00 TS 13.6880 140.499 main 1625 1576 PPPP__________ WP271997 13.5000 140.700 67 1 13.8651 140.385 3 47 987 0 9 230 230 13.7222 140.427 2 46 990 13.6648 140.485 TS 42 991 12 292
1997283N07177 1997 95 WP MM IVAN 1997-10-15 12:00:00 TS 13.9000 139.950 50 985 tokyo main 1576 1525 OOOO__________ jtwc_wp WP271997 13.7000 140.000 70 1 14.2000 139.800 4 50 985 0 9 240 240 0 13.9000 140.000 3 48 990 13.8000 140.000 TS 45 990 11 291
1997283N07177 1997 95 WP MM IVAN 1997-10-15 15:00:00 TS 14.0721 139.460 main 1527 1477 PPPP__________ WP271997 13.8572 139.385 75 1 14.4095 139.372 4 52 982 0 9 250 250 14.0646 139.552 3 48 987 13.9572 139.530 TS 47 987 10 287
1997283N07177 1997 95 WP MM IVAN 1997-10-15 18:00:00 TS 14.2000 138.925 55 980 tokyo main 1466 1405 OOOO__________ jtwc_wp WP271997 14.0000 138.800 80 1 14.5000 138.900 4 55 980 9 40 40 9 260 260 0 14.2000 139.000 3 48 985 14.1000 139.000 STS 50 985 12 280
1997283N07177 1997 95 WP MM IVAN 1997-10-15 21:00:00 TS 14.2901 138.239 main 1395 1320 PPPP__________ WP271997 14.1647 138.223 82 1 14.4653 138.172 4 60 975 9 55 55 9 270 270 14.3153 138.223 3 53 982 14.2150 138.337 STS 52 982 14 276
1997283N07177 1997 95 WP MM IVAN 1997-10-16 00:00:00 TS 14.3500 137.500 65 970 tokyo main 1322 1258 OOOO__________ jtwc_wp WP271997 14.3000 137.600 85 2 14.4000 137.400 5 65 970 9 70 70 9 280 280 0 14.4000 137.400 3 58 980 14.3000 137.600 STS 55 980 14 275
1997283N07177 1997 95 WP MM IVAN 1997-10-16 03:00:00 TS 14.4035 136.814 main 1247 1184 PPPP__________ WP271997 14.3650 136.872 90 2 14.4345 136.800 5 70 965 9 80 80 9 290 290 14.4571 136.727 3 63 975 14.3573 136.857 STS 57 977 13 274
1997283N07177 1997 95 WP MM IVAN 1997-10-16 06:00:00 TS 14.4500 136.125 75 960 tokyo main 1175 1112 OOOO__________ jtwc_wp WP271997 14.4000 136.100 95 2 14.5000 136.200 5 75 960 9 90 90 9 300 300 0 14.5000 136.100 4 68 970 14.4000 136.100 STS 60 975 14 274
1997283N07177 1997 95 WP MM IVAN 1997-10-16 09:00:00 TS 14.4997 135.415 main 1102 1028 PPPP__________ WP271997 14.4498 135.350 100 3 14.5423 135.487 5 80 955 9 105 105 9 312 312 14.5495 135.480 4 72 967 14.4573 135.343 STS 62 972 14 274
1997283N07177 1997 95 WP MM IVAN 1997-10-16 12:00:00 TS 14.5500 134.675 85 950 tokyo main 1031 947 OOOO__________ jtwc_wp WP271997 14.5000 134.600 105 3 14.6000 134.700 5 85 950 9 120 120 9 325 325 0 14.6000 134.800 4 77 965 14.5000 134.600 T 65 970 15 274
1997283N07177 1997 95 WP MM IVAN 1997-10-16 15:00:00 TS 14.6150 133.876 main 947 868 PPPP__________ WP271997 14.5648 133.843 112 3 14.7227 133.828 5 87 945 9 130 130 9 337 337 14.6653 133.950 4 77 965 14.5073 133.885 T 67 967 15 274
1997283N07177 1997 95 WP MM IVAN 1997-10-16 18:00:00 TS 14.6500 133.100 90 940 tokyo main 868 803 OOOO__________ jtwc_wp WP271997 14.6000 133.100 120 4 14.8000 133.000 5 90 940 9 140 140 9 350 350 0 14.7000 133.100 4 77 965 14.5000 133.200 T 70 965 14 270
1997283N07177 1997 95 WP MM IVAN 1997-10-16 21:00:00 TS 14.6072 132.424 main 793 732 PPPP__________ WP271997 14.5573 132.377 130 4 14.7145 132.362 5 92 932 9 150 150 9 350 350 14.6571 132.412 4 82 960 14.4998 132.543 T 75 960 13 265
1997283N07177 1997 95 WP MM IVAN 1997-10-17 00:00:00 TS 14.5500 131.800 95 925 tokyo main 732 668 OOOO__________ jtwc_wp WP271997 14.5000 131.700 140 5 14.6000 131.800 5 95 925 9 160 160 9 350 350 0 14.6000 131.800 5 87 955 14.5000 131.900 T 80 955 12 267
1997283N07177 1997 95 WP MM IVAN 1997-10-17 03:00:00 TS 14.5423 131.176 main 668 609 PPPP__________ WP271997 14.4847 131.085 142 5 14.5849 131.193 5 97 920 9 170 170 9 350 350 14.5998 131.185 5 92 950 14.4999 131.243 T 85 950 12 270
1997283N07177 1997 95 WP MM IVAN 1997-10-17 06:00:00 TS 14.5500 130.575 100 915 tokyo main 613 550 OOOO__________ jtwc_wp WP271997 14.5000 130.500 145 5 14.6000 130.600 5 100 915 9 180 180 9 350 350 0 14.6000 130.600 5 97 945 14.5000 130.600 ST 90 945 11 270
1997283N07177 1997 95 WP MM IVAN 1997-10-17 09:00:00 TS 14.5423 129.991 main 550 503 PPPP__________ WP271997 14.5500 129.885 150 5 14.5923 130.050 5 102 910 9 180 180 9 350 350 14.5348 130.042 5 97 942 14.4923 129.985 ST 95 937 11 270
1997283N07177 1997 95 WP MM IVAN 1997-10-17 12:00:00 TS 14.5500 129.425 105 905 tokyo main 500 455 OOOO__________ jtwc_wp WP271997 14.6000 129.300 155 5 14.6000 129.500 5 105 905 9 180 180 9 350 350 0 14.5000 129.500 5 97 940 14.5000 129.400 SuperT 100 930 11 272
1997283N07177 1997 95 WP MM IVAN 1997-10-17 15:00:00 TS 14.5867 128.873 main 455 413 PPPP__________ WP271997 14.5922 128.792 157 5 14.6350 128.900 5 105 905 9 180 180 9 350 350 14.5848 128.958 5 101 937 14.5348 128.842 SuperT 100 930 11 275
1997283N07177 1997 95 WP MM IVAN 1997-10-17 18:00:00 TS 14.6500 128.325 105 905 tokyo main 412 373 OOOO__________ jtwc_wp WP271997 14.6000 128.300 160 5 14.7000 128.300 5 105 905 9 180 180 9 350 350 0 14.7000 128.400 6 106 935 14.6000 128.300 SuperT 100 930 11 277
1997283N07177 1997 95 WP MM IVAN 1997-10-17 21:00:00 TS 14.7187 127.747 main 365 318 PPPP__________ WP271997 14.6700 127.742 155 5 14.7849 127.727 5 105 905 9 180 180 9 350 350 14.7351 127.785 6 106 932 14.6850 127.735 SuperT 100 930 11 279
1997283N07177 1997 95 WP MM IVAN 1997-10-18 00:00:00 TS 14.8250 127.200 105 905 tokyo main 318 281 OOOO__________ jtwc_wp WP271997 14.8000 127.200 150 5 14.9000 127.200 5 105 905 9 180 180 9 350 350 0 14.8000 127.200 6 106 930 14.8000 127.200 SuperT 100 930 10 285
1997283N07177 1997 95 WP MM IVAN 1997-10-18 03:00:00 TS 14.9830 126.729 main 276 251 PPPP__________ WP271997 14.9848 126.735 147 5 15.0349 126.727 5 105 905 9 180 180 9 350 350 14.9773 126.728 6 106 930 14.9349 126.727 SuperT 97 935 9 292
1997283N07177 1997 95 WP MM IVAN 1997-10-18 06:00:00 TS 15.1750 126.300 105 905 tokyo main 251 225 OOOO__________ jtwc_wp WP271997 15.2000 126.300 145 5 15.2000 126.300 5 105 905 9 180 180 9 350 350 0 15.2000 126.300 6 106 930 15.1000 126.300 ST 95 940 9 295
1997283N07177 1997 95 WP MM IVAN 1997-10-18 09:00:00 TS 15.3693 125.862 main 232 211 PPPP__________ WP271997 15.4000 125.835 145 5 15.3924 125.885 5 105 907 9 175 175 9 337 337 15.4000 125.835 6 106 930 15.2849 125.892 ST 95 940 9 296
1997283N07177 1997 95 WP MM IVAN 1997-10-18 12:00:00 TS 15.5750 125.450 105 910 tokyo main 220 208 OOOO__________ jtwc_wp WP271997 15.6000 125.400 145 5 15.6000 125.500 5 105 910 9 170 170 9 325 325 0 15.6000 125.400 6 106 930 15.5000 125.500 ST 95 940 9 298
1997283N07177 1997 95 WP MM IVAN 1997-10-18 15:00:00 TS 15.7743 125.080 main 219 215 PPPP__________ WP271997 15.7924 125.035 142 5 15.7849 125.150 5 102 912 9 165 165 9 312 312 15.7849 125.035 6 106 930 15.7349 125.100 ST 95 940 8 301
1997283N07177 1997 95 WP MM IVAN 1997-10-18 18:00:00 TS 16.0000 124.725 100 915 tokyo main 227 213 OOOO__________ jtwc_wp WP271997 16.0000 124.700 140 5 16.0000 124.800 5 100 915 9 160 160 9 300 300 0 16.0000 124.700 6 106 930 16.0000 124.700 ST 95 940 9 305
1997283N07177 1997 95 WP MM IVAN 1997-10-18 21:00:00 TS 16.2763 124.341 main 203 163 PPPP__________ WP271997 16.2350 124.342 140 5 16.2850 124.393 5 100 915 9 160 160 9 300 300 16.2850 124.343 6 101 935 16.3000 124.285 ST 95 940 9 309
1997283N07177 1997 95 WP MM IVAN 1997-10-19 00:00:00 TS 16.5750 123.975 100 915 tokyo main 163 127 OOOO__________ jtwc_wp WP271997 16.5000 124.000 140 5 16.6000 124.000 5 100 915 9 160 160 9 300 300 0 16.6000 124.000 5 97 940 16.6000 123.900 ST 95 940 9 313
1997283N07177 1997 95 WP MM IVAN 1997-10-19 03:00:00 TS 16.8755 123.669 main 127 96 PPPP__________ WP271997 16.7999 123.700 137 5 16.9223 123.692 5 100 917 9 155 155 9 290 290 16.9224 123.700 5 97 940 16.8574 123.585 ST 92 942 8 315
1997283N07177 1997 95 WP MM IVAN 1997-10-19 06:00:00 TS 17.1500 123.375 100 920 tokyo main 98 62 OOOO__________ jtwc_wp WP271997 17.1000 123.400 135 4 17.2000 123.400 5 100 920 9 150 150 9 280 280 0 17.2000 123.400 5 97 940 17.1000 123.300 ST 90 945 8 308
1997283N07177 1997 95 WP MM IVAN 1997-10-19 09:00:00 TS 17.3576 123.021 main 64 38 PPPP__________ WP271997 17.3575 123.042 132 4 17.3576 123.027 5 97 922 9 145 145 9 270 270 17.3576 123.027 5 97 942 17.3575 122.985 ST 87 947 8 302
1997283N07177 1997 95 WP MM IVAN 1997-10-19 12:00:00 TS 17.5500 122.700 95 925 tokyo main 46 38 OOOO__________ jtwc_wp WP271997 17.6000 122.700 130 4 17.5000 122.700 5 95 925 9 140 140 9 260 260 0 17.5000 122.700 5 97 945 17.6000 122.700 ST 85 950 7 310
1997283N07177 1997 95 WP MM IVAN 1997-10-19 15:00:00 TS 17.7949 122.479 main 42 15 PPPP__________ WP271997 17.8650 122.413 125 4 17.7574 122.498 5 92 930 9 135 135 9 250 250 17.7423 122.535 5 92 947 17.8150 122.470 ST 82 952 6 323
1997283N07177 1997 95 WP MM IVAN 1997-10-19 18:00:00 TS 18.0250 122.325 90 935 tokyo main 15 0 OOOO__________ jtwc_wp WP271997 18.1000 122.200 120 4 18.0000 122.400 5 90 935 9 130 130 9 240 240 0 18.0000 122.400 5 87 950 18.0000 122.300 T 80 955 5 325
1997283N07177 1997 95 WP MM IVAN 1997-10-19 21:00:00 TS 18.1900 122.194 main 0 0 PPPP__________ WP271997 18.2649 122.070 115 4 18.1150 122.392 5 87 940 9 125 125 9 230 230 18.2226 122.135 5 82 955 18.1575 122.177 T 77 957 4 325
1997283N07177 1997 95 WP MM IVAN 1997-10-20 00:00:00 TS 18.3250 122.100 85 945 tokyo main 0 0 OOOO__________ jtwc_wp WP271997 18.4000 122.000 110 3 18.2000 122.400 5 85 945 9 120 120 9 220 220 0 18.4000 121.900 4 77 960 18.3000 122.100 T 75 960 3 329
1997283N07177 1997 95 WP MM IVAN 1997-10-20 03:00:00 TS 18.4625 122.019 main 15 15 PPPP__________ WP271997 18.5500 121.935 105 3 18.3350 122.300 5 80 950 9 110 110 9 215 215 18.5149 121.805 4 72 965 18.4500 122.035 T 72 962 3 337
1997283N07177 1997 95 WP MM IVAN 1997-10-20 06:00:00 TS 18.6000 121.975 75 955 tokyo main 24 24 OOOO__________ jtwc_wp WP271997 18.7000 121.900 100 3 18.5000 122.200 5 75 955 9 100 100 9 210 210 0 18.6000 121.800 4 68 970 18.6000 122.000 T 70 965 3 348
1997283N07177 1997 95 WP MM IVAN 1997-10-20 09:00:00 TS 18.7500 121.958 main 35 35 PPPP__________ WP271997 18.8500 121.863 95 2 18.7000 122.177 5 72 957 9 95 95 9 205 205 18.7000 121.820 4 66 972 18.7500 121.970 T 67 967 3 0
1997283N07177 1997 95 WP MM IVAN 1997-10-20 12:00:00 TS 18.9000 122.000 70 960 tokyo main 56 56 OOOO__________ jtwc_wp WP271997 19.0000 121.900 90 2 18.9000 122.200 5 70 960 9 90 90 9 200 200 0 18.8000 121.900 4 64 975 18.9000 122.000 T 65 970 3 23
1997283N07177 1997 95 WP MM IVAN 1997-10-20 15:00:00 TS 19.0318 122.083 main 67 67 PPPP__________ WP271997 19.1574 122.047 85 2 19.0424 122.190 5 67 965 9 80 80 9 190 190 18.8849 121.998 4 64 975 19.0424 122.098 T 65 970 4 43
1997283N07177 1997 95 WP MM IVAN 1997-10-20 18:00:00 TS 19.1750 122.275 65 970 tokyo main 89 89 OOOO__________ jtwc_wp WP271997 19.3000 122.300 80 1 19.2000 122.300 5 65 970 9 70 70 9 180 180 0 19.0000 122.200 4 64 975 19.2000 122.300 T 65 970 6 57
1997283N07177 1997 95 WP MM IVAN 1997-10-20 21:00:00 TS 19.3589 122.616 main 116 116 PPPP__________ WP271997 19.4000 122.628 75 1 19.4577 122.655 5 60 975 9 65 65 9 175 175 19.1777 122.570 4 61 977 19.4000 122.612 T 62 972 8 62
1997283N07177 1997 95 WP MM IVAN 1997-10-21 00:00:00 TS 19.5500 123.025 55 980 tokyo main 153 143 OOOO__________ jtwc_wp WP271997 19.5000 123.000 70 1 19.7000 123.100 4 55 980 9 60 60 9 170 170 0 19.4000 123.000 3 58 980 19.6000 123.000 STS 60 975 8 63
1997283N07177 1997 95 WP MM IVAN 1997-10-21 03:00:00 TS 19.7255 123.378 main 185 185 PPPP__________ WP271997 19.6423 123.335 67 1 19.8223 123.450 4 52 982 9 9 165 165 19.6723 123.342 3 53 982 19.7649 123.385 STS 57 977 8 65
1997283N07177 1997 95 WP MM IVAN 1997-10-21 06:00:00 TS 19.8750 123.750 50 985 tokyo main 230 230 OOOO__________ jtwc_wp WP271997 19.8000 123.700 65 1 19.9000 123.800 4 50 985 0 9 160 160 0 19.9000 123.700 3 48 985 19.9000 123.800 STS 55 980 8 71
1997283N07177 1997 95 WP MM IVAN 1997-10-21 09:00:00 TS 19.9843 124.171 main 268 268 PPPP__________ WP271997 19.9500 124.135 62 0 20.0073 124.178 4 47 987 0 9 155 155 19.9724 124.128 3 46 987 20.0074 124.243 STS 52 982 8 76
1997283N07177 1997 95 WP MM IVAN 1997-10-21 12:00:00 TS 20.0750 124.625 45 990 tokyo main 307 307 OOOO__________ jtwc_wp WP271997 20.1000 124.600 60 0 20.1000 124.600 3 45 990 0 9 150 150 0 20.0000 124.600 2 44 990 20.1000 124.700 STS 50 985 9 79
1997283N07177 1997 95 WP MM IVAN 1997-10-21 15:00:00 TS 20.1581 125.108 main 356 356 PPPP__________ WP271997 20.2424 125.050 60 0 20.1352 125.123 3 45 990 0 9 150 150 20.0700 125.100 2 44 990 20.1849 125.158 STS 50 985 9 77
1997283N07177 1997 95 WP MM IVAN 1997-10-21 18:00:00 TS 20.2750 125.575 45 990 tokyo main 406 406 OOOO__________ jtwc_wp WP271997 20.4000 125.500 60 0 20.2000 125.600 3 45 990 0 9 150 150 0 20.2000 125.600 2 44 990 20.3000 125.600 STS 50 985 9 70
1997283N07177 1997 95 WP MM IVAN 1997-10-21 21:00:00 TS 20.4612 125.991 main 453 453 PPPP__________ WP271997 20.5775 125.965 60 0 20.3622 125.880 3 45 990 0 9 150 150 20.4276 126.095 2 44 990 20.4774 126.022 STS 47 987 8 60
1997283N07177 1997 95 WP MM IVAN 1997-10-22 00:00:00 TS 20.7000 126.350 45 990 tokyo main 500 500 OOOO__________ jtwc_wp WP271997 20.8000 126.400 60 0 20.6000 126.100 3 45 990 0 9 150 150 0 20.7000 126.500 2 44 990 20.7000 126.400 TS 45 990 8 51
1997283N07177 1997 95 WP MM IVAN 1997-10-22 03:00:00 TS 20.9599 126.655 main 544 544 PPPP__________ WP271997 21.0849 126.773 60 0 20.8850 126.393 3 45 990 0 9 175 150 20.9348 126.738 2 44 990 20.9349 126.715 TS 45 990 8 44
1997283N07177 1997 95 WP MM IVAN 1997-10-22 06:00:00 TS 21.2500 126.925 45 990 tokyo main 580 574 OOOO__________ jtwc_wp WP271997 21.4000 127.100 60 0 21.2000 126.700 3 45 990 0 3 200 150 0 21.2000 126.900 2 44 990 21.2000 127.000 TS 45 990 8 40
1997283N07177 1997 95 WP MM IVAN 1997-10-22 09:00:00 TS 21.5455 127.185 main 618 618 PPPP__________ WP271997 21.6999 127.400 62 0 21.4848 126.978 3 45 990 0 3 205 145 21.5198 127.070 2 44 990 21.4774 127.293 TS 45 990 8 39
1997283N07177 1997 95 WP MM IVAN 1997-10-22 12:00:00 TS 21.8750 127.475 45 990 tokyo main 640 636 OOOO__________ jtwc_wp WP271997 22.0000 127.700 65 1 21.8000 127.300 3 45 990 0 3 210 140 0 21.9000 127.300 2 44 990 21.8000 127.600 TS 45 990 9 40
1997283N07177 1997 95 WP MM IVAN 1997-10-22 15:00:00 TS 22.2624 127.836 main 650 650 PPPP__________ WP271997 22.2999 128.035 65 1 22.1925 127.727 3 45 990 0 3 215 135 22.3725 127.655 2 44 990 22.1849 127.928 TS 45 990 11 43
1997283N07177 1997 95 WP MM IVAN 1997-10-22 18:00:00 TS 22.6500 128.250 45 990 tokyo main 682 682 OOOO__________ jtwc_wp WP271997 22.6000 128.400 65 1 22.6000 128.200 3 45 990 0 3 220 130 0 22.8000 128.100 2 44 990 22.6000 128.300 TS 45 990 10 49
1997283N07177 1997 95 WP MM IVAN 1997-10-22 21:00:00 TS 22.9527 128.683 main 711 711 PPPP__________ WP271997 22.8848 128.770 62 0 22.9260 128.640 3 45 990 0 3 200 155 22.9925 128.586 2 44 990 23.0075 128.735 TS 45 990 10 53
1997283N07177 1997 95 WP MM IVAN 1997-10-23 00:00:00 TS 23.2750 129.150 45 990 tokyo main 753 753 OOOO__________ jtwc_wp WP271997 23.2000 129.200 60 0 23.3000 129.100 3 45 990 0 9 180 180 0 23.2000 129.100 2 44 990 23.4000 129.200 TS 45 990 12 49
1997283N07177 1997 95 WP MM IVAN 1997-10-23 03:00:00 TS 23.7068 129.644 45 990 tokyo main 782 772 POPP__________ WP271997 23.5774 129.720 60 0 23.8000 129.600 3 45 990 0 9 180 180 0 23.6924 129.607 2 46 987 23.7574 129.650 TS 45 990 12 46
1997283N07177 1997 95 WP MM IVAN 1997-10-23 06:00:00 TS 24.1250 130.125 45 990 tokyo main 772 725 OOOO__________ jtwc_wp WP271997 24.0000 130.300 60 0 24.2000 130.000 3 45 990 0 9 200 200 0 24.2000 130.100 3 48 985 24.1000 130.100 TS 45 990 12 49
1997283N07177 1997 95 WP MM IVAN 1997-10-23 09:00:00 TS 24.4755 130.621 45 990 tokyo main 725 693 POPP__________ WP271997 24.4573 130.893 60 0 24.5000 130.500 3 45 990 0 9 200 200 0 24.4872 130.551 3 48 985 24.4573 130.543 TS 45 990 12 54
1997283N07177 1997 95 WP MM IVAN 1997-10-23 12:00:00 TS 24.8000 131.150 45 990 tokyo main 693 664 OOOO__________ jtwc_wp WP271997 24.9000 131.500 60 0 24.8000 131.100 3 45 990 0 9 200 200 0 24.7000 131.000 3 48 985 24.8000 131.000 TS 45 990 11 57
1997283N07177 1997 95 WP MM IVAN 1997-10-23 15:00:00 TS 25.0766 131.659 45 990 tokyo main 665 648 POPP__________ WP271997 25.2722 132.093 60 0 25.0000 131.600 3 45 990 0 9 200 200 0 24.9271 131.463 3 43 988 25.1072 131.478 TS 45 990 11 60
1997283N07177 1997 95 WP MM IVAN 1997-10-23 18:00:00 TS 25.3500 132.200 45 990 tokyo main 642 626 OOOO__________ jtwc_wp WP271997 25.6000 132.700 60 0 25.2000 132.100 3 45 990 0 9 200 200 0 25.2000 132.000 2 38 992 25.4000 132.000 TS 45 990 12 61
1997283N07177 1997 95 WP MM IVAN 1997-10-23 21:00:00 TS 25.6712 132.826 45 990 tokyo main 626 617 POPP__________ WP271997 25.9076 133.365 60 0 25.5000 132.700 3 45 990 0 9 200 200 0 25.5852 132.677 2 38 992 25.6921 132.563 TS 45 990 14 59
1997283N07177 1997 95 WP MM IVAN 1997-10-24 00:00:00 TS 26.0533 133.520 45 992 tokyo main 611 605 OOOO__________ jtwc_wp WP271997 26.2000 134.000 60 0 26.0000 133.400 3 45 992 0 9 180 180 0 26.0000 133.400 2 38 992 26.0000 133.200 TS 45 990 15 58
1997283N07177 1997 95 WP MM IVAN 1997-10-24 03:00:00 TS 26.4340 134.197 45 992 tokyo main 616 606 POPP__________ WP271997 26.4918 134.501 60 0 26.5000 134.200 3 45 992 0 9 180 180 0 26.3567 134.028 2 38 992 26.3410 133.924 TS 45 990 14 58
1997283N07177 1997 95 WP MM IVAN 1997-10-24 06:00:00 TS 26.7923 134.854 40 994 tokyo main 615 611 OOOO__________ jtwc_wp WP271997 26.8000 135.000 60 0 26.9000 134.900 3 40 994 0 9 180 180 0 26.7000 134.700 2 38 992 26.7000 134.700 TS 45 990 14 61
1997283N07177 1997 95 WP MM IVAN 1997-10-24 09:00:00 TS 27.1329 135.612 main 629 626 PPP___________ WP271997 27.1349 135.620 57 0 27.2136 135.687 3 40 994 0 9 180 180 27.0501 135.528 2 36 993 TS 15 64
1997283N07177 1997 95 WP MM IVAN 1997-10-24 12:00:00 TS 27.4667 136.400 40 994 tokyo main 650 635 OOO___________ jtwc_wp WP271997 27.5000 136.300 55 0 27.5000 136.500 3 40 994 0 9 180 180 0 27.4000 136.400 2 34 994 15 62
1997283N07177 1997 95 WP MM IVAN 1997-10-24 15:00:00 TS 27.8426 137.138 main 637 610 PPP___________ WP271997 27.9218 136.962 52 0 27.8568 137.250 3 37 995 0 9 160 160 27.7493 137.201 2 31 995 15 61
1997283N07177 1997 95 WP MM IVAN 1997-10-24 18:00:00 TS 28.2000 137.900 35 996 tokyo main 613 606 OOO___________ jtwc_wp WP271997 28.3000 137.700 50 0 28.2000 138.000 3 35 996 0 9 140 140 0 28.1000 138.000 1 29 996 16 65
1997283N07177 1997 95 WP MM IVAN 1997-10-24 21:00:00 TS 28.5016 138.745 main 612 611 PPP___________ WP271997 28.5374 138.571 47 0 28.4797 138.793 3 35 996 0 9 135 135 28.4876 138.872 1 29 996 16 70
1997283N07177 1997 95 WP MM IVAN 1997-10-25 00:00:00 TS 28.7273 139.591 35 996 tokyo main 636 632 OOO___________ jtwc_wp WP271997 28.7000 139.500 45 0 28.7000 139.600 3 35 996 0 9 130 130 0 28.8000 139.700 1 29 996 15 75
1997283N07177 1997 95 WP MM IVAN 1997-10-25 03:00:00 TS 28.8754 140.390 main 653 653 PPP___________ WP271997 28.8645 140.408 45 0 28.8490 140.371 3 997 0 9 28.9501 140.393 1 26 997 15 79
1997283N07177 1997 95 WP MM IVAN 1997-10-25 06:00:00 MX 29.0000 141.222 998 tokyo main 664 664 OOO___________ jtwc_wp WP271997 29.0000 141.300 45 0 29.0000 141.200 6 998 0 0 0 29.0000 141.000 1 23 998 16 79
1997283N07177 1997 95 WP MM IVAN 1997-10-25 09:00:00 ET 29.1815 142.138 main 668 668 PP____________ WP271997 29.1215 142.143 45 0 29.2415 142.133 6 999 0 0 1 17 78
1997283N07177 1997 95 WP MM IVAN 1997-10-25 12:00:00 ET 29.3500 143.100 1000 tokyo main 683 683 OO____________ jtwc_wp WP271997 29.2000 143.000 45 0 29.5000 143.200 6 1000 0 0 0 18 81
1997283N07177 1997 95 WP MM IVAN 1997-10-25 15:00:00 ET 29.4723 144.178 main 724 724 PP____________ WP271997 29.2145 143.928 45 0 29.7302 144.427 6 1000 0 0 20 83
1997283N07177 1997 95 WP MM IVAN 1997-10-25 18:00:00 ET 29.6000 145.357 1000 tokyo main 780 780 OO____________ jtwc_wp WP271997 29.2000 144.900 45 0 29.9000 145.700 6 1000 0 0 0 20 84
1997283N07177 1997 95 WP MM IVAN 1997-10-25 21:00:00 ET 29.6717 146.504 main 837 837 PP____________ WP271997 29.1965 145.895 45 0 29.9094 146.809 6 1000 0 0 21 83
1997283N07177 1997 95 WP MM IVAN 1997-10-26 00:00:00 ET 29.8400 147.780 1000 tokyo main 917 916 OO____________ jtwc_wp WP271997 29.2000 146.900 45 0 30.0000 148.000 6 1000 0 0 0 27 76
1997283N07177 1997 95 WP MM IVAN 1997-10-26 03:00:00 ET 30.3308 149.506 main 1000 1000 _P____________ WP271997 -1 30.3308 149.506 6 1000 0 0 31 70
1997283N07177 1997 95 WP MM IVAN 1997-10-26 06:00:00 ET 30.9000 151.100 1000 tokyo main 1086 1086 _O____________ -1 30.9000 151.100 6 1000 0 0 0 29 62
1997283N07177 1997 95 WP MM IVAN 1997-10-26 09:00:00 ET 31.7241 152.527 main 1159 1159 _P____________ -1 31.7241 152.527 6 1000 0 0 30 55
1997283N07177 1997 95 WP MM IVAN 1997-10-26 12:00:00 ET 32.6000 154.000 1000 tokyo main 1250 1250 _O____________ -1 32.6000 154.000 6 1000 0 0 0 31 59
1997283N07177 1997 95 WP MM IVAN 1997-10-26 15:00:00 ET 33.2761 155.643 main 1369 1369 _P____________ -1 33.2761 155.643 6 1000 0 0 31 67
1997283N07177 1997 95 WP MM IVAN 1997-10-26 18:00:00 ET 33.8000 157.400 1000 tokyo main 1466 _O____________ -1 33.8000 157.400 6 1000 0 0 0 31 70

Digital Typhoon Data and Search

About IBTrACS Database

This database is a web-friendly format of International Best Track Archive for Climate Stewardship (IBTrACS), a global best track data archive curated by NOAA dating back to 1842.

Updated: 2021-11-26